PWSweather.com
Personal Weather Stations
Station Observations
KTXROUND14
Stone Oak Hoa, Round Rock, TX 78681

Stone Oak HoaRound Rock, TX 78681

Lat: 30.553161, Lon: -97.735115

Elevation: 875

Station Type: Acurite 5-in-1

http://www.kishk.org/weather

Latest ConditionsUpdated 7:47:02 PM CST Wednesday, Jan 16, 2019
Currently Today's Max Today's Min Today's Average
Temperature 54.0°F12.2°C 57.0°F13.9°C 46.0°F7.8°C 50.9°F10.5°C
Dew Point 53.0°F11.7°C 53.0°F11.7°C 43.0°F6.1°C 48.4°F9.1°C
Winds 2.0 mph NNW3.2 kmh NNW 5.0 mph -8.0 kmh - - 1.5 mph 2.4 kmh
Wind Gusts 3.0 mph4.8 kmh 6.0 mph9.7 kmh - -
Humidity 95% 95% 86% 90%
Pressure 30.16 in1021.3 mb 30.31 in1026.4 mb 30.16 in1021.3 mb -
Hour Temp Dew Point Humidity Winds Wind Gusts Pressure Precip Precip Rate Daily Precip Total
07:47 PM 54.0°F12.2°C 53.0°F11.7°C 95% 2.0 mph NNW3.2 kmh NNW 3.0 mph4.8 kmh 30.16 in1021.3 mb 0.01 in0.3 mm 0.00 in0.0 mm 0.08 in2.0 mm
07:42 PM 54.0°F12.2°C 53.0°F11.7°C 95% 2.0 mph E3.2 kmh E 2.0 mph3.2 kmh 30.16 in1021.3 mb 0.02 in0.5 mm 0.00 in0.0 mm 0.08 in2.0 mm
07:27 PM 54.0°F12.2°C 53.0°F11.7°C 95% 2.0 mph SW3.2 kmh SW 2.0 mph3.2 kmh 30.16 in1021.3 mb 0.02 in0.5 mm 0.02 in0.5 mm 0.08 in2.0 mm
07:02 PM 54.0°F12.2°C 53.0°F11.7°C 94% Calm Calm 2.0 mph3.2 kmh 30.17 in1021.7 mb 0.01 in0.3 mm 0.00 in0.0 mm 0.07 in1.8 mm
06:57 PM 54.0°F12.2°C 53.0°F11.7°C 94% Calm Calm 2.0 mph3.2 kmh 30.17 in1021.7 mb 0.01 in0.3 mm 0.04 in1.0 mm 0.07 in1.8 mm
06:42 PM 54.0°F12.2°C 53.0°F11.7°C 94% 1.0 mph ENE1.6 kmh ENE 3.0 mph4.8 kmh 30.16 in1021.3 mb 0.00 in0.0 mm 0.00 in0.0 mm 0.06 in1.5 mm
06:37 PM 54.0°F12.2°C 53.0°F11.7°C 94% Calm Calm 4.0 mph6.4 kmh 30.16 in1021.3 mb 0.00 in0.0 mm 0.00 in0.0 mm 0.01 in0.3 mm
06:32 PM 54.0°F12.2°C 53.0°F11.7°C 94% Calm Calm 4.0 mph6.4 kmh 30.16 in1021.3 mb 0.00 in0.0 mm 0.00 in0.0 mm 0.01 in0.3 mm
06:07 PM 54.0°F12.2°C 53.0°F11.7°C 93% 2.0 mph ESE3.2 kmh ESE 5.0 mph8.0 kmh 30.16 in1021.3 mb 0.00 in0.0 mm 0.00 in0.0 mm 0.02 in0.5 mm
06:02 PM 54.0°F12.2°C 53.0°F11.7°C 93% 2.0 mph ESE3.2 kmh ESE 5.0 mph8.0 kmh 30.16 in1021.3 mb 0.00 in0.0 mm 0.00 in0.0 mm 0.02 in0.5 mm
05:47 PM 55.0°F12.8°C 53.0°F11.7°C 92% 1.0 mph NE1.6 kmh NE 5.0 mph8.0 kmh 30.16 in1021.3 mb 0.00 in0.0 mm 0.00 in0.0 mm 0.02 in0.5 mm
05:42 PM 55.0°F12.8°C 53.0°F11.7°C 92% 1.0 mph NNW1.6 kmh NNW 5.0 mph8.0 kmh 30.16 in1021.3 mb 0.00 in0.0 mm 0.00 in0.0 mm 0.02 in0.5 mm
05:07 PM 55.0°F12.8°C 52.0°F11.1°C 91% 5.0 mph NE8.0 kmh NE 6.0 mph9.7 kmh 30.16 in1021.3 mb 0.00 in0.0 mm 0.00 in0.0 mm 0.03 in0.8 mm
05:02 PM 55.0°F12.8°C 52.0°F11.1°C 91% 5.0 mph NE8.0 kmh NE 6.0 mph9.7 kmh 30.16 in1021.3 mb 0.00 in0.0 mm 0.00 in0.0 mm 0.03 in0.8 mm
04:52 PM 55.0°F12.8°C 52.0°F11.1°C 90% 5.0 mph NW8.0 kmh NW 6.0 mph9.7 kmh 30.17 in1021.7 mb 0.00 in0.0 mm 0.00 in0.0 mm 0.03 in0.8 mm
04:12 PM 56.0°F13.3°C 53.0°F11.7°C 88% 2.0 mph ESE3.2 kmh ESE 6.0 mph9.7 kmh 30.17 in1021.7 mb 0.00 in0.0 mm 0.00 in0.0 mm 0.03 in0.8 mm
04:07 PM 57.0°F13.9°C 53.0°F11.7°C 88% 1.0 mph 1.6 kmh 6.0 mph9.7 kmh 30.17 in1021.7 mb 0.00 in0.0 mm 0.00 in0.0 mm 0.03 in0.8 mm
03:32 PM 57.0°F13.9°C 53.0°F11.7°C 86% 2.0 mph NNE3.2 kmh NNE 6.0 mph9.7 kmh 30.18 in1022.0 mb 0.00 in0.0 mm 0.00 in0.0 mm 0.03 in0.8 mm
03:27 PM 57.0°F13.9°C 53.0°F11.7°C 86% 2.0 mph NNE3.2 kmh NNE 6.0 mph9.7 kmh 30.18 in1022.0 mb 0.00 in0.0 mm 0.00 in0.0 mm 0.03 in0.8 mm
02:42 PM 57.0°F13.9°C 53.0°F11.7°C 87% 2.0 mph NNE3.2 kmh NNE 4.0 mph6.4 kmh 30.19 in1022.4 mb 0.00 in0.0 mm 0.00 in0.0 mm 0.03 in0.8 mm
01:57 PM 55.0°F12.8°C 51.0°F10.6°C 88% 2.0 mph NNW3.2 kmh NNW 5.0 mph8.0 kmh 30.20 in1022.7 mb 0.00 in0.0 mm 0.00 in0.0 mm 0.03 in0.8 mm
01:47 PM 56.0°F13.3°C 53.0°F11.7°C 88% 2.0 mph E3.2 kmh E 5.0 mph8.0 kmh 30.20 in1022.7 mb 0.00 in0.0 mm 0.00 in0.0 mm 0.03 in0.8 mm
01:42 PM 56.0°F13.3°C 53.0°F11.7°C 88% 2.0 mph E3.2 kmh E 5.0 mph8.0 kmh 30.20 in1022.7 mb 0.00 in0.0 mm 0.00 in0.0 mm 0.03 in0.8 mm
01:07 PM 55.0°F12.8°C 52.0°F11.1°C 90% 4.0 mph 6.4 kmh 5.0 mph8.0 kmh 30.24 in1024.0 mb 0.00 in0.0 mm 0.00 in0.0 mm 0.03 in0.8 mm
12:57 PM 55.0°F12.8°C 51.0°F10.6°C 88% 2.0 mph E3.2 kmh E 4.0 mph6.4 kmh 30.29 in1025.7 mb 0.00 in0.0 mm 0.00 in0.0 mm 0.03 in0.8 mm
12:12 PM 55.0°F12.8°C 52.0°F11.1°C 89% 2.0 mph NE3.2 kmh NE 4.0 mph6.4 kmh 30.29 in1025.7 mb 0.00 in0.0 mm 0.00 in0.0 mm 0.03 in0.8 mm
12:07 PM 54.0°F12.2°C 52.0°F11.1°C 89% 1.0 mph E1.6 kmh E 4.0 mph6.4 kmh 30.29 in1025.7 mb 0.00 in0.0 mm 0.00 in0.0 mm 0.03 in0.8 mm
11:27 AM 53.0°F11.7°C 50.0°F10.0°C 89% 2.0 mph E3.2 kmh E 4.0 mph6.4 kmh 30.31 in1026.4 mb 0.00 in0.0 mm 0.00 in0.0 mm 0.03 in0.8 mm
11:22 AM 53.0°F11.7°C 50.0°F10.0°C 89% 2.0 mph E3.2 kmh E 4.0 mph6.4 kmh 30.31 in1026.4 mb 0.00 in0.0 mm 0.00 in0.0 mm 0.03 in0.8 mm
11:17 AM 53.0°F11.7°C 50.0°F10.0°C 89% 2.0 mph ESE3.2 kmh ESE 3.0 mph4.8 kmh 30.31 in1026.4 mb 0.00 in0.0 mm 0.00 in0.0 mm 0.03 in0.8 mm
11:02 AM 53.0°F11.7°C 50.0°F10.0°C 89% 2.0 mph 3.2 kmh 3.0 mph4.8 kmh 30.31 in1026.4 mb 0.00 in0.0 mm 0.00 in0.0 mm 0.03 in0.8 mm
10:32 AM 52.0°F11.1°C 50.0°F10.0°C 90% 2.0 mph W3.2 kmh W 3.0 mph4.8 kmh 30.30 in1026.1 mb 0.00 in0.0 mm 0.00 in0.0 mm 0.03 in0.8 mm
10:27 AM 52.0°F11.1°C 49.0°F9.4°C 91% 1.0 mph E1.6 kmh E 3.0 mph4.8 kmh 30.30 in1026.1 mb 0.00 in0.0 mm 0.00 in0.0 mm 0.03 in0.8 mm
09:47 AM 50.0°F10.0°C 48.0°F8.9°C 93% 2.0 mph ESE3.2 kmh ESE 2.0 mph3.2 kmh 30.28 in1025.4 mb 0.00 in0.0 mm 0.00 in0.0 mm 0.03 in0.8 mm
09:37 AM 50.0°F10.0°C 48.0°F8.9°C 93% Calm Calm 2.0 mph3.2 kmh 30.28 in1025.4 mb 0.00 in0.0 mm 0.00 in0.0 mm 0.03 in0.8 mm
09:22 AM 50.0°F10.0°C 48.0°F8.9°C 93% Calm Calm 3.0 mph4.8 kmh 30.28 in1025.4 mb 0.00 in0.0 mm 0.00 in0.0 mm 0.03 in0.8 mm
09:02 AM 49.0°F9.4°C 48.0°F8.9°C 93% Calm Calm 3.0 mph4.8 kmh 30.28 in1025.4 mb 0.00 in0.0 mm 0.00 in0.0 mm 0.03 in0.8 mm
08:57 AM 49.0°F9.4°C 48.0°F8.9°C 93% Calm Calm 3.0 mph4.8 kmh 30.28 in1025.4 mb 0.00 in0.0 mm 0.00 in0.0 mm 0.03 in0.8 mm
08:42 AM 49.0°F9.4°C 48.0°F8.9°C 93% Calm Calm 3.0 mph4.8 kmh 30.27 in1025.1 mb 0.00 in0.0 mm 0.00 in0.0 mm 0.03 in0.8 mm
08:02 AM 49.0°F9.4°C 47.0°F8.3°C 91% 2.0 mph NNW3.2 kmh NNW 4.0 mph6.4 kmh 30.26 in1024.7 mb 0.00 in0.0 mm 0.00 in0.0 mm 0.03 in0.8 mm
07:47 AM 48.0°F8.9°C 45.0°F7.2°C 91% 2.0 mph NW3.2 kmh NW 4.0 mph6.4 kmh 30.26 in1024.7 mb 0.00 in0.0 mm 0.00 in0.0 mm 0.03 in0.8 mm
07:17 AM 48.0°F8.9°C 45.0°F7.2°C 90% 1.0 mph 1.6 kmh 4.0 mph6.4 kmh 30.26 in1024.7 mb 0.00 in0.0 mm 0.00 in0.0 mm 0.03 in0.8 mm
07:12 AM 48.0°F8.9°C 45.0°F7.2°C 90% 1.0 mph 1.6 kmh 4.0 mph6.4 kmh 30.26 in1024.7 mb 0.00 in0.0 mm 0.00 in0.0 mm 0.03 in0.8 mm
07:07 AM 48.0°F8.9°C 45.0°F7.2°C 90% 2.0 mph NNE3.2 kmh NNE 4.0 mph6.4 kmh 30.26 in1024.7 mb 0.00 in0.0 mm 0.00 in0.0 mm 0.03 in0.8 mm
07:02 AM 48.0°F8.9°C 45.0°F7.2°C 90% 1.0 mph SSW1.6 kmh SSW 4.0 mph6.4 kmh 30.26 in1024.7 mb 0.00 in0.0 mm 0.00 in0.0 mm 0.03 in0.8 mm
06:22 AM 48.0°F8.9°C 45.0°F7.2°C 89% 2.0 mph 3.2 kmh 4.0 mph6.4 kmh 30.24 in1024.0 mb 0.00 in0.0 mm 0.00 in0.0 mm 0.03 in0.8 mm
06:17 AM 48.0°F8.9°C 45.0°F7.2°C 89% 2.0 mph 3.2 kmh 4.0 mph6.4 kmh 30.24 in1024.0 mb 0.00 in0.0 mm 0.00 in0.0 mm 0.03 in0.8 mm
06:02 AM 48.0°F8.9°C 45.0°F7.2°C 89% 2.0 mph NNW3.2 kmh NNW 4.0 mph6.4 kmh 30.24 in1024.0 mb 0.00 in0.0 mm 0.00 in0.0 mm 0.03 in0.8 mm
05:32 AM 48.0°F8.9°C 45.0°F7.2°C 89% 1.0 mph W1.6 kmh W 2.0 mph3.2 kmh 30.25 in1024.4 mb 0.00 in0.0 mm 0.00 in0.0 mm 0.03 in0.8 mm
05:27 AM 48.0°F8.9°C 45.0°F7.2°C 89% Calm Calm 2.0 mph3.2 kmh 30.25 in1024.4 mb 0.00 in0.0 mm 0.00 in0.0 mm 0.03 in0.8 mm
05:17 AM 48.0°F8.9°C 45.0°F7.2°C 90% Calm Calm 3.0 mph4.8 kmh 30.25 in1024.4 mb 0.00 in0.0 mm 0.00 in0.0 mm 0.03 in0.8 mm
04:32 AM 48.0°F8.9°C 45.0°F7.2°C 89% 2.0 mph NE3.2 kmh NE 3.0 mph4.8 kmh 30.27 in1025.1 mb 0.06 in1.5 mm 0.00 in0.0 mm 0.03 in0.8 mm
04:17 AM 48.0°F8.9°C 45.0°F7.2°C 89% 2.0 mph ENE3.2 kmh ENE 4.0 mph6.4 kmh 30.27 in1025.1 mb 0.06 in1.5 mm 0.05 in1.3 mm 0.03 in0.8 mm
03:57 AM 48.0°F8.9°C 45.0°F7.2°C 89% Calm Calm 4.0 mph6.4 kmh 30.26 in1024.7 mb 0.03 in0.8 mm 0.00 in0.0 mm 0.03 in0.8 mm
03:52 AM 48.0°F8.9°C 45.0°F7.2°C 89% Calm Calm 4.0 mph6.4 kmh 30.26 in1024.7 mb 0.03 in0.8 mm 0.18 in4.6 mm 0.03 in0.8 mm
03:42 AM 48.0°F8.9°C 45.0°F7.2°C 89% 2.0 mph NNW3.2 kmh NNW 4.0 mph6.4 kmh 30.26 in1024.7 mb 0.00 in0.0 mm 0.00 in0.0 mm 0.00 in0.0 mm
03:37 AM 48.0°F8.9°C 45.0°F7.2°C 89% 2.0 mph NNW3.2 kmh NNW 4.0 mph6.4 kmh 30.26 in1024.7 mb 0.00 in0.0 mm 0.00 in0.0 mm 0.00 in0.0 mm
03:32 AM 48.0°F8.9°C 45.0°F7.2°C 89% 1.0 mph E1.6 kmh E 4.0 mph6.4 kmh 30.26 in1024.7 mb 0.00 in0.0 mm 0.00 in0.0 mm 0.00 in0.0 mm
03:27 AM 48.0°F8.9°C 45.0°F7.2°C 89% 1.0 mph E1.6 kmh E 4.0 mph6.4 kmh 30.26 in1024.7 mb 0.00 in0.0 mm 0.00 in0.0 mm 0.00 in0.0 mm
03:07 AM 47.0°F8.3°C 45.0°F7.2°C 89% Calm Calm 3.0 mph4.8 kmh 30.26 in1024.7 mb 0.00 in0.0 mm 0.00 in0.0 mm 0.00 in0.0 mm
02:47 AM 47.0°F8.3°C 45.0°F7.2°C 89% Calm Calm 4.0 mph6.4 kmh 30.26 in1024.7 mb 0.00 in0.0 mm 0.00 in0.0 mm 0.00 in0.0 mm
02:42 AM 47.0°F8.3°C 45.0°F7.2°C 89% 2.0 mph NNW3.2 kmh NNW 4.0 mph6.4 kmh 30.26 in1024.7 mb 0.00 in0.0 mm 0.00 in0.0 mm 0.00 in0.0 mm
02:37 AM 47.0°F8.3°C 45.0°F7.2°C 89% 2.0 mph NNW3.2 kmh NNW 4.0 mph6.4 kmh 30.26 in1024.7 mb 0.00 in0.0 mm 0.00 in0.0 mm 0.00 in0.0 mm
01:52 AM 47.0°F8.3°C 45.0°F7.2°C 89% 1.0 mph NNW1.6 kmh NNW 4.0 mph6.4 kmh 30.28 in1025.4 mb 0.00 in0.0 mm 0.00 in0.0 mm 0.00 in0.0 mm
01:47 AM 47.0°F8.3°C 45.0°F7.2°C 89% 2.0 mph ENE3.2 kmh ENE 4.0 mph6.4 kmh 30.28 in1025.4 mb 0.00 in0.0 mm 0.00 in0.0 mm 0.00 in0.0 mm
01:32 AM 47.0°F8.3°C 45.0°F7.2°C 89% 2.0 mph NE3.2 kmh NE 4.0 mph6.4 kmh 30.28 in1025.4 mb 0.00 in0.0 mm 0.00 in0.0 mm 0.00 in0.0 mm
01:27 AM 47.0°F8.3°C 45.0°F7.2°C 89% 2.0 mph NE3.2 kmh NE 4.0 mph6.4 kmh 30.28 in1025.4 mb 0.00 in0.0 mm 0.00 in0.0 mm 0.00 in0.0 mm
01:02 AM 47.0°F8.3°C 45.0°F7.2°C 89% 1.0 mph WNW1.6 kmh WNW 4.0 mph6.4 kmh 30.28 in1025.4 mb 0.00 in0.0 mm 0.00 in0.0 mm 0.00 in0.0 mm
12:57 AM 47.0°F8.3°C 45.0°F7.2°C 89% 2.0 mph NNW3.2 kmh NNW 4.0 mph6.4 kmh 30.28 in1025.4 mb 0.00 in0.0 mm 0.00 in0.0 mm 0.00 in0.0 mm
12:42 AM 47.0°F8.3°C 45.0°F7.2°C 90% Calm Calm 4.0 mph6.4 kmh 30.28 in1025.4 mb 0.00 in0.0 mm 0.00 in0.0 mm 0.00 in0.0 mm
12:37 AM 47.0°F8.3°C 45.0°F7.2°C 90% Calm Calm 4.0 mph6.4 kmh 30.28 in1025.4 mb 0.00 in0.0 mm 0.00 in0.0 mm 0.00 in0.0 mm
12:17 AM 46.0°F7.8°C 43.0°F6.1°C 90% 2.0 mph ENE3.2 kmh ENE 4.0 mph6.4 kmh 30.28 in1025.4 mb 0.00 in0.0 mm 0.00 in0.0 mm 0.00 in0.0 mm
12:07 AM 46.0°F7.8°C 43.0°F6.1°C 91% 2.0 mph SW3.2 kmh SW 4.0 mph6.4 kmh 30.28 in1025.4 mb 0.00 in0.0 mm 0.00 in0.0 mm 0.00 in0.0 mm